Pays
Station

 

Conditions  météo  pour  Toledo, Metcalf Field  -  Etats-Unis    Etats-Unis

  
-14 °C
    
 
 

METAR pour Toledo, Metcalf Field :

KTDZ 212153Z AUTO 21008KT 10SM CLR M14/M20 A3059 RMK AO2 SLP377 T11441200

 

Voici le bulletin pour Toledo, Metcalf Field - Etats-Unis.
 
Le bulletin a été fait il y a 7 minutes, à 21:53 UTC .
Le vent soufflait à la vitesse de 4.1 mètres par seconde de Sud/Sud-ouest (210°).
 
La température était de -14 °C, avec un point de rosée à -20 °C.
La température ressentie était de -21 °C.
 
La pression atmosphérique était de 1036 hPa.
L'humidité relative était de 60.2%.
 
Le ciel était clair.
 
La visibilité globale était de 16.1 kilomètres.
 

 
 
 

Pays :   A   B   C   D   E   F   G   H   I   J   K   L   M   N   O   P   Q   R   S   T   U   V   W   Y   Z

 

Partenaires :  Info Météo avec Met'info
Météo Marine avec MeteoMarine.net
Infos Site  |  Infos Légales  |  Crédits  |  Confidentialité
Contactez-nous  |  Ajouter aux favoris
© 2013-2019 METAR - Tous droits réservés